createdAt,value
2018-12-13T00:01:19.554Z,5.23
2018-12-13T00:03:46.993Z,5.80
2018-12-13T00:06:14.460Z,5.63
2018-12-13T00:08:41.906Z,5.47
2018-12-13T00:11:09.366Z,5.43
2018-12-13T00:13:36.819Z,5.73
2018-12-13T00:33:16.882Z,6.00
2018-12-13T00:35:44.306Z,5.67
2018-12-13T00:38:11.739Z,5.83
2018-12-13T00:40:39.339Z,6.03
2018-12-13T00:43:06.776Z,5.10
2018-12-13T00:45:34.255Z,6.03
2018-12-13T00:48:01.713Z,5.83
2018-12-13T00:50:29.135Z,5.80
2018-12-13T00:52:56.546Z,6.13
2018-12-13T00:55:24.004Z,5.43
2018-12-13T00:57:51.441Z,5.63
2018-12-13T01:00:19.100Z,6.07
2018-12-13T01:02:46.556Z,6.00
2018-12-13T01:05:14.012Z,5.57
2018-12-13T01:07:41.572Z,5.93
2018-12-13T01:10:09.051Z,5.90
2018-12-13T01:12:36.556Z,6.10
2018-12-13T01:15:04.864Z,5.43
2018-12-13T01:17:32.328Z,5.40
2018-12-13T01:19:59.887Z,5.63
2018-12-13T01:22:27.547Z,4.90
2018-12-13T01:24:55.082Z,5.17
2018-12-13T01:27:22.666Z,5.30
2018-12-13T01:29:50.122Z,4.73
2018-12-13T01:32:17.576Z,5.50
2018-12-13T01:34:45.021Z,5.57
2018-12-13T01:37:12.491Z,5.43
2018-12-13T01:39:39.944Z,5.73
2018-12-13T01:42:07.403Z,5.30
2018-12-13T01:44:35.055Z,5.53
2018-12-13T01:47:02.529Z,5.27
2018-12-13T01:49:29.976Z,5.53
2018-12-13T01:51:57.532Z,5.67
2018-12-13T01:54:25.115Z,5.50
2018-12-13T01:56:52.748Z,5.63
2018-12-13T01:59:20.220Z,5.67
2018-12-13T02:01:47.775Z,5.50
2018-12-13T02:04:15.198Z,6.10
2018-12-13T02:06:42.799Z,5.77
2018-12-13T02:09:10.222Z,5.70
2018-12-13T02:11:37.674Z,5.80
2018-12-13T02:14:05.167Z,5.90
2018-12-13T02:16:32.624Z,5.23
2018-12-13T02:19:00.077Z,5.80
2018-12-13T02:21:27.547Z,5.50
2018-12-13T02:23:55.066Z,5.67
2018-12-13T02:26:22.505Z,5.50
2018-12-13T02:28:50.102Z,5.57
2018-12-13T02:31:17.601Z,5.50
2018-12-13T02:33:45.129Z,5.47
2018-12-13T02:36:12.788Z,5.40
2018-12-13T02:38:40.217Z,5.80
2018-12-13T02:41:07.660Z,5.50
2018-12-13T02:43:35.374Z,5.57
2018-12-13T02:46:03.745Z,5.13
2018-12-13T02:48:31.206Z,5.60
2018-12-13T02:50:58.656Z,5.50
2018-12-13T02:53:26.112Z,5.90
2018-12-13T02:55:53.568Z,5.07
2018-12-13T02:58:21.044Z,5.63
2018-12-13T03:00:48.473Z,5.80
2018-12-13T03:03:15.898Z,5.40
2018-12-13T03:05:43.413Z,5.33
2018-12-13T03:08:10.968Z,5.53
2018-12-13T03:10:38.416Z,5.70
2018-12-13T03:13:05.983Z,5.50
2018-12-13T03:15:33.438Z,5.37
2018-12-13T03:18:00.897Z,5.60
2018-12-13T03:20:28.455Z,5.60
2018-12-13T03:22:56.005Z,5.33
2018-12-13T03:25:23.465Z,5.63
2018-12-13T03:27:51.021Z,5.23
2018-12-13T03:30:18.505Z,5.50
2018-12-13T03:32:46.023Z,5.67
2018-12-13T03:35:13.477Z,5.33
2018-12-13T03:37:40.913Z,5.70
2018-12-13T03:40:08.521Z,5.63
2018-12-13T03:42:35.959Z,5.40
2018-12-13T03:45:03.634Z,5.53
2018-12-13T03:47:31.086Z,5.17
2018-12-13T03:49:58.556Z,5.70
2018-12-13T03:52:26.001Z,6.00
2018-12-13T03:54:53.566Z,6.13
2018-12-13T03:57:21.022Z,5.57
2018-12-13T03:59:48.590Z,5.63
2018-12-13T04:02:16.238Z,6.03
2018-12-13T04:04:43.793Z,5.50
2018-12-13T04:07:11.278Z,5.87
2018-12-13T04:09:38.922Z,5.90
2018-12-13T04:12:06.463Z,5.67
2018-12-13T04:14:33.891Z,6.13
2018-12-13T04:17:01.448Z,6.20
2018-12-13T04:19:28.961Z,6.40
2018-12-13T04:21:58.313Z,6.23
2018-12-13T04:24:25.750Z,6.10
2018-12-13T04:26:53.204Z,6.37
2018-12-13T04:29:20.826Z,6.00
2018-12-13T04:31:48.261Z,6.70
2018-12-13T04:34:15.810Z,6.00
2018-12-13T04:36:43.238Z,5.83
2018-12-13T04:39:10.771Z,5.77
2018-12-13T04:41:38.273Z,6.37
2018-12-13T04:44:05.777Z,6.27
2018-12-13T04:46:33.337Z,6.33
2018-12-13T04:49:00.786Z,5.77
2018-12-13T04:51:28.354Z,6.20
2018-12-13T04:53:55.823Z,6.10
2018-12-13T04:56:23.313Z,6.10
2018-12-13T04:58:50.826Z,5.90
2018-12-13T05:01:18.580Z,5.57
2018-12-13T05:03:46.006Z,6.30
2018-12-13T05:06:13.507Z,6.30
2018-12-13T05:08:41.193Z,6.37
2018-12-13T05:11:08.726Z,6.00
2018-12-13T05:13:36.204Z,6.20
2018-12-13T05:16:03.981Z,5.90
2018-12-13T05:18:31.497Z,6.37
2018-12-13T05:20:58.989Z,6.23
2018-12-13T05:23:26.613Z,6.67
2018-12-13T05:25:54.076Z,5.90
2018-12-13T05:28:21.533Z,6.17
2018-12-13T05:30:48.993Z,5.50
2018-12-13T05:33:16.417Z,5.93
2018-12-13T05:35:43.969Z,6.60
2018-12-13T05:38:11.477Z,6.07
2018-12-13T05:40:39.025Z,6.30
2018-12-13T05:43:06.482Z,5.90
2018-12-13T05:45:33.922Z,5.90
2018-12-13T05:48:01.345Z,6.33
2018-12-13T05:50:28.853Z,6.23
2018-12-13T05:52:56.410Z,5.77
2018-12-13T05:55:23.870Z,6.00
2018-12-13T05:57:51.329Z,6.37
2018-12-13T06:00:19.037Z,6.47
2018-12-13T06:02:46.498Z,6.70
2018-12-13T06:05:13.949Z,6.37
2018-12-13T06:07:41.461Z,6.43
2018-12-13T06:10:08.890Z,6.57
2018-12-13T06:12:36.316Z,6.60
2018-12-13T06:15:04.819Z,6.87
2018-12-13T06:17:32.469Z,7.40
2018-12-13T06:20:00.286Z,6.43
2018-12-13T06:22:27.949Z,6.30
2018-12-13T06:24:55.369Z,6.33
2018-12-13T06:27:22.806Z,6.50
2018-12-13T06:29:50.317Z,6.67
2018-12-13T06:32:17.769Z,6.50
2018-12-13T06:34:45.230Z,6.80
2018-12-13T06:37:12.683Z,6.60
2018-12-13T06:39:40.441Z,6.60
2018-12-13T06:42:07.891Z,7.10
2018-12-13T06:44:35.361Z,6.20
2018-12-13T06:47:02.846Z,6.43
2018-12-13T06:49:30.263Z,6.33
2018-12-13T06:51:57.720Z,6.40
2018-12-13T06:54:25.168Z,6.67
2018-12-13T06:56:52.641Z,6.80
2018-12-13T06:59:20.101Z,6.90
2018-12-13T07:01:47.523Z,6.40
2018-12-13T07:04:15.037Z,6.33
2018-12-13T07:06:43.442Z,6.27
2018-12-13T07:09:10.872Z,6.43
2018-12-13T07:11:38.413Z,6.33
2018-12-13T07:14:06.494Z,6.63
2018-12-13T07:16:34.130Z,6.50
2018-12-13T07:19:01.698Z,6.23
2018-12-13T07:21:29.256Z,6.43
2018-12-13T07:23:56.682Z,6.53
2018-12-13T07:26:24.218Z,6.37
2018-12-13T07:28:51.749Z,6.77
2018-12-13T07:31:19.197Z,6.97
2018-12-13T07:33:46.805Z,6.47
2018-12-13T07:36:14.262Z,6.53
2018-12-13T07:38:41.746Z,6.00
2018-12-13T07:41:09.320Z,7.07
2018-12-13T07:43:36.736Z,6.23
2018-12-13T07:46:04.229Z,6.43
2018-12-13T07:48:31.706Z,6.70
2018-12-13T07:50:59.125Z,6.57
2018-12-13T07:53:26.633Z,6.67
2018-12-13T07:55:54.064Z,7.20
2018-12-13T07:58:21.526Z,7.03
2018-12-13T08:00:49.076Z,6.63
2018-12-13T08:03:16.502Z,6.93
2018-12-13T08:05:45.101Z,7.27
2018-12-13T08:08:12.880Z,7.20
2018-12-13T08:10:40.352Z,6.77
2018-12-13T08:13:07.768Z,6.93
2018-12-13T08:15:35.362Z,7.23
2018-12-13T08:18:02.882Z,7.63
2018-12-13T08:20:30.350Z,7.57
2018-12-13T08:22:57.917Z,7.43
2018-12-13T08:25:25.358Z,7.57
2018-12-13T08:27:52.849Z,7.33
2018-12-13T08:30:20.413Z,7.43
2018-12-13T08:32:47.874Z,7.87
2018-12-13T08:35:15.424Z,7.87
2018-12-13T08:37:42.902Z,7.97
2018-12-13T08:40:10.456Z,7.40
2018-12-13T08:42:38.004Z,7.20
2018-12-13T08:45:06.513Z,7.40
2018-12-13T08:47:33.954Z,7.17
2018-12-13T08:50:01.500Z,7.33
2018-12-13T08:52:28.944Z,7.77
2018-12-13T08:54:56.478Z,7.43
2018-12-13T08:57:24.133Z,8.70
2018-12-13T08:59:51.573Z,7.90
2018-12-13T09:02:19.098Z,7.63
2018-12-13T09:04:46.658Z,7.40
2018-12-13T09:07:14.088Z,7.83
2018-12-13T09:09:41.509Z,7.80
2018-12-13T09:12:08.974Z,7.80
2018-12-13T09:14:36.442Z,7.10
2018-12-13T09:17:03.933Z,8.13
2018-12-13T09:19:31.497Z,8.03
2018-12-13T09:21:58.934Z,7.37
2018-12-13T09:24:26.409Z,7.90
2018-12-13T09:26:53.855Z,7.10
2018-12-13T09:29:21.419Z,8.00
2018-12-13T09:31:48.881Z,7.30
2018-12-13T09:34:16.338Z,7.60
2018-12-13T09:36:43.816Z,7.27
2018-12-13T09:39:11.258Z,7.23
2018-12-13T09:41:38.706Z,7.30
2018-12-13T09:44:08.195Z,7.27
2018-12-13T09:46:35.660Z,6.73
2018-12-13T09:49:03.135Z,7.50
2018-12-13T09:51:30.617Z,6.83
2018-12-13T09:53:58.044Z,7.30
2018-12-13T09:56:25.596Z,6.30
2018-12-13T09:58:53.360Z,6.90
2018-12-13T10:01:20.824Z,12.17
2018-12-13T10:03:48.260Z,6.83
2018-12-13T10:06:15.711Z,6.50
2018-12-13T10:08:46.313Z,6.03
2018-12-13T10:11:12.590Z,6.83
2018-12-13T10:13:40.059Z,6.40
2018-12-13T10:16:07.626Z,6.40
2018-12-13T10:18:35.176Z,6.63
2018-12-13T10:21:02.621Z,6.93
2018-12-13T10:23:30.044Z,6.13
2018-12-13T10:25:59.666Z,6.80
2018-12-13T10:28:27.049Z,6.23
2018-12-13T10:30:54.480Z,6.80
2018-12-13T10:33:22.062Z,6.50
2018-12-13T10:35:49.622Z,7.13
2018-12-13T10:38:17.164Z,6.93
2018-12-13T10:40:44.842Z,6.77
2018-12-13T10:43:12.272Z,7.13
2018-12-13T10:45:39.857Z,7.23
2018-12-13T10:48:07.513Z,7.17
2018-12-13T10:50:35.189Z,7.20
2018-12-13T10:53:02.608Z,7.67
2018-12-13T10:55:30.416Z,6.87
2018-12-13T10:57:57.932Z,6.97
2018-12-13T11:00:30.949Z,7.47
2018-12-13T11:06:12.348Z,7.60
2018-12-13T11:08:39.797Z,9.87
2018-12-13T11:11:07.356Z,7.67
2018-12-13T11:13:34.822Z,6.67
2018-12-13T11:16:02.297Z,6.57
2018-12-13T11:18:29.713Z,8.07
2018-12-13T11:20:57.173Z,7.50
2018-12-13T11:23:24.753Z,7.83
2018-12-13T11:25:52.203Z,6.87
2018-12-13T11:28:29.397Z,7.27
2018-12-13T11:30:56.948Z,7.17
2018-12-13T11:33:24.482Z,7.20
2018-12-13T11:35:52.154Z,7.07
2018-12-13T11:38:19.688Z,7.70
2018-12-13T11:40:47.186Z,7.03
2018-12-13T11:43:14.745Z,6.67
2018-12-13T11:45:42.238Z,7.03
2018-12-13T11:48:09.718Z,6.93
2018-12-13T11:50:37.329Z,7.20
2018-12-13T11:53:04.798Z,6.83
2018-12-13T11:55:33.489Z,6.97
2018-12-13T11:58:01.404Z,9.63
2018-12-13T12:00:28.891Z,7.00
2018-12-13T12:02:56.452Z,6.77
2018-12-13T12:05:24.111Z,7.10
2018-12-13T12:07:51.637Z,7.30
2018-12-13T12:10:19.061Z,6.67
2018-12-13T12:12:46.580Z,6.97
2018-12-13T12:15:14.048Z,6.57
2018-12-13T12:17:41.705Z,7.20
2018-12-13T12:20:09.197Z,6.90
2018-12-13T12:22:36.717Z,6.90
2018-12-13T12:25:05.490Z,7.57
2018-12-13T12:27:32.929Z,6.73
2018-12-13T12:30:00.417Z,6.90
2018-12-13T12:32:28.087Z,7.17
2018-12-13T12:34:55.512Z,7.00
2018-12-13T12:37:22.974Z,6.33
2018-12-13T12:39:50.480Z,6.50
2018-12-13T12:42:17.911Z,7.20
2018-12-13T12:44:45.477Z,7.47
2018-12-13T12:47:12.929Z,7.23
2018-12-13T12:49:40.357Z,6.57
2018-12-13T12:52:07.794Z,7.73
2018-12-13T12:54:35.408Z,6.73
2018-12-13T12:57:02.856Z,7.97
2018-12-13T12:59:30.413Z,7.47
2018-12-13T13:01:57.898Z,7.20
2018-12-13T13:04:25.334Z,7.67
2018-12-13T13:06:52.762Z,11.10
2018-12-13T13:09:24.996Z,7.43
2018-12-13T13:11:49.757Z,9.97
2018-12-13T13:14:17.251Z,7.47
2018-12-13T13:16:44.738Z,7.23
2018-12-13T13:19:12.184Z,7.57
2018-12-13T13:21:39.609Z,6.77
2018-12-13T13:24:07.200Z,7.30
2018-12-13T13:26:34.700Z,7.47
2018-12-13T13:29:02.127Z,7.17
2018-12-13T13:31:29.663Z,7.43
2018-12-13T13:33:57.080Z,6.20
2018-12-13T13:36:24.563Z,6.50
2018-12-13T13:38:52.119Z,5.97
2018-12-13T13:41:19.553Z,6.37
2018-12-13T13:43:47.221Z,6.57
2018-12-13T13:46:14.753Z,6.60
2018-12-13T13:48:42.209Z,7.20
2018-12-13T13:51:09.679Z,6.57
2018-12-13T13:53:37.220Z,6.67
2018-12-13T13:56:04.696Z,6.80
2018-12-13T13:58:32.139Z,6.47
2018-12-13T14:00:59.614Z,6.90
2018-12-13T14:03:27.064Z,6.87
2018-12-13T14:05:54.542Z,6.53
2018-12-13T14:08:22.071Z,6.40
2018-12-13T14:10:49.496Z,6.57
2018-12-13T14:13:16.990Z,6.50
2018-12-13T14:15:44.544Z,6.83
2018-12-13T14:18:11.972Z,6.97
2018-12-13T14:20:39.434Z,6.80
2018-12-13T14:23:06.997Z,5.93
2018-12-13T14:25:34.480Z,6.30
2018-12-13T14:28:01.910Z,6.37
2018-12-13T14:30:29.439Z,6.50
2018-12-13T14:32:56.944Z,6.97
2018-12-13T14:35:24.512Z,6.43
2018-12-13T14:37:52.177Z,6.57
2018-12-13T14:40:19.628Z,6.73
2018-12-13T14:42:47.172Z,6.80
2018-12-13T14:45:14.634Z,6.90
2018-12-13T14:47:42.285Z,6.13
2018-12-13T14:50:09.781Z,6.50
2018-12-13T14:52:37.237Z,7.00
2018-12-13T14:55:04.781Z,6.07
2018-12-13T14:57:32.319Z,6.17
2018-12-13T14:59:59.805Z,6.47
2018-12-13T15:02:27.457Z,6.37
2018-12-13T15:04:55.512Z,7.37
2018-12-13T15:07:22.960Z,6.17
2018-12-13T15:09:50.985Z,6.27
2018-12-13T15:12:18.934Z,5.67
2018-12-13T15:14:46.353Z,5.73
2018-12-13T15:17:13.941Z,6.07
2018-12-13T15:19:41.401Z,5.90
2018-12-13T15:22:08.834Z,6.17
2018-12-13T15:24:36.341Z,6.40
2018-12-13T15:27:03.817Z,6.50
2018-12-13T15:29:31.266Z,5.90
2018-12-13T15:31:59.417Z,5.90
2018-12-13T15:34:27.317Z,6.57
2018-12-13T15:36:54.825Z,5.77
2018-12-13T15:39:22.547Z,6.30
2018-12-13T15:41:50.048Z,6.27
2018-12-13T15:44:17.505Z,6.53
2018-12-13T15:46:45.159Z,6.90
2018-12-13T15:49:12.662Z,6.30
2018-12-13T15:51:40.181Z,6.90
2018-12-13T15:54:07.641Z,6.17
2018-12-13T15:56:35.202Z,6.00
2018-12-13T15:59:02.632Z,6.33
2018-12-13T16:01:30.053Z,6.27
2018-12-13T16:03:57.769Z,6.07
2018-12-13T16:06:25.222Z,6.03
2018-12-13T16:08:52.664Z,5.40
2018-12-13T16:11:20.246Z,5.90
2018-12-13T16:13:47.700Z,5.70
2018-12-13T16:16:15.147Z,6.17
2018-12-13T16:18:42.725Z,6.40
2018-12-13T16:21:10.584Z,5.83
2018-12-13T16:23:38.033Z,6.57
2018-12-13T16:26:05.702Z,6.50
2018-12-13T16:28:33.161Z,6.53
2018-12-13T16:31:00.610Z,7.80
2018-12-13T16:33:28.127Z,7.60
2018-12-13T16:35:55.643Z,6.43
2018-12-13T16:38:23.198Z,6.97
2018-12-13T16:40:50.956Z,7.13
2018-12-13T16:43:18.377Z,7.70
2018-12-13T16:45:45.832Z,7.03
2018-12-13T16:48:13.639Z,6.13
2018-12-13T16:50:41.105Z,7.00
2018-12-13T16:53:08.731Z,6.83
2018-12-13T16:55:36.324Z,7.17
2018-12-13T16:58:03.788Z,7.73
2018-12-13T17:00:31.312Z,7.97
2018-12-13T17:02:58.949Z,8.57
2018-12-13T17:05:26.458Z,7.60
2018-12-13T17:07:53.996Z,7.93
2018-12-13T17:10:21.500Z,7.47
2018-12-13T17:12:48.965Z,7.33
2018-12-13T17:15:16.395Z,6.77
2018-12-13T17:17:44.039Z,5.93
2018-12-13T17:20:11.722Z,6.10
2018-12-13T17:22:39.149Z,6.90
2018-12-13T17:25:06.916Z,7.70
2018-12-13T17:27:34.383Z,7.67
2018-12-13T17:30:01.946Z,7.37
2018-12-13T17:32:29.454Z,7.57
2018-12-13T17:34:56.958Z,7.80
2018-12-13T17:37:24.424Z,7.87
2018-12-13T17:39:52.070Z,7.00
2018-12-13T17:42:19.653Z,8.13
2018-12-13T17:44:47.193Z,7.90
2018-12-13T17:47:14.809Z,8.20
2018-12-13T17:49:42.409Z,8.17
2018-12-13T17:52:09.974Z,7.77
2018-12-13T17:54:37.534Z,8.30
2018-12-13T17:57:05.145Z,9.03
2018-12-13T17:59:32.676Z,9.07
2018-12-13T18:02:00.419Z,9.60
2018-12-13T18:04:27.953Z,8.03
2018-12-13T18:06:55.416Z,8.43
2018-12-13T18:09:22.917Z,8.77
2018-12-13T18:11:50.360Z,7.93
2018-12-13T18:14:17.809Z,8.13
2018-12-13T18:16:45.363Z,8.67
2018-12-13T18:19:12.784Z,8.33
2018-12-13T18:21:40.289Z,8.07
2018-12-13T18:24:07.829Z,7.83
2018-12-13T18:26:35.318Z,7.67
2018-12-13T18:29:02.951Z,7.53
2018-12-13T18:31:30.665Z,7.93
2018-12-13T18:33:58.164Z,9.57
2018-12-13T18:36:25.753Z,9.40
2018-12-13T18:38:53.283Z,9.43
2018-12-13T18:41:20.741Z,9.47
2018-12-13T18:43:48.303Z,8.77
2018-12-13T18:46:15.965Z,8.60
2018-12-13T18:48:43.455Z,8.90
2018-12-13T18:51:10.989Z,9.07
2018-12-13T18:53:38.544Z,8.57
2018-12-13T18:56:06.209Z,9.60
2018-12-13T18:58:33.638Z,8.90
2018-12-13T19:01:01.105Z,9.27
2018-12-13T19:03:28.607Z,8.70
2018-12-13T19:05:56.057Z,8.27
2018-12-13T19:08:23.571Z,8.57
2018-12-13T19:10:51.343Z,8.03
2018-12-13T19:13:18.872Z,8.20
2018-12-13T19:15:46.373Z,8.20
2018-12-13T19:18:13.825Z,8.10
2018-12-13T19:20:41.393Z,7.77
2018-12-13T19:23:09.131Z,8.50
2018-12-13T19:25:36.569Z,8.00
2018-12-13T19:28:04.013Z,8.70
2018-12-13T19:30:31.541Z,7.43
2018-12-13T19:32:59.096Z,7.83
2018-12-13T19:35:26.751Z,8.07
2018-12-13T19:37:54.377Z,8.23
2018-12-13T19:40:21.882Z,7.77
2018-12-13T19:42:49.302Z,7.70
2018-12-13T19:45:16.977Z,8.40
2018-12-13T19:47:44.437Z,8.67
2018-12-13T19:50:12.011Z,9.37
2018-12-13T19:52:39.653Z,8.57
2018-12-13T19:55:07.540Z,8.07
2018-12-13T19:57:35.084Z,8.20
2018-12-13T20:00:02.746Z,8.37
2018-12-13T20:02:30.211Z,8.60
2018-12-13T20:04:57.662Z,8.57
2018-12-13T20:07:25.167Z,7.63
2018-12-13T20:09:52.597Z,7.77
2018-12-13T20:12:20.161Z,8.63
2018-12-13T20:14:47.791Z,7.50
2018-12-13T20:17:15.221Z,7.70
2018-12-13T20:19:42.649Z,7.70
2018-12-13T20:22:10.189Z,8.60
2018-12-13T20:24:37.624Z,8.03
2018-12-13T20:27:05.194Z,8.00
2018-12-13T20:29:32.967Z,7.87
2018-12-13T20:32:00.501Z,7.67
2018-12-13T20:34:27.966Z,7.33
2018-12-13T20:36:55.468Z,7.50
2018-12-13T20:39:23.084Z,7.83
2018-12-13T20:41:50.638Z,7.80
2018-12-13T20:44:18.114Z,7.10
2018-12-13T20:46:45.598Z,7.57
2018-12-13T20:49:13.099Z,7.13
2018-12-13T20:51:40.538Z,7.97
2018-12-13T20:54:08.022Z,8.23
2018-12-13T20:56:35.458Z,7.93
2018-12-13T20:59:02.948Z,7.27
2018-12-13T21:01:30.431Z,7.13
2018-12-13T21:03:57.969Z,8.50
2018-12-13T21:06:25.481Z,7.93
2018-12-13T21:08:53.061Z,6.90
2018-12-13T21:11:20.520Z,7.83
2018-12-13T21:13:47.998Z,7.70
2018-12-13T21:16:15.945Z,6.83
2018-12-13T21:18:43.401Z,7.13
2018-12-13T21:21:10.848Z,7.27
2018-12-13T21:23:38.445Z,7.10
2018-12-13T21:26:05.981Z,6.20
2018-12-13T21:28:33.414Z,6.60
2018-12-13T21:31:01.139Z,6.80
2018-12-13T21:33:28.662Z,6.30
2018-12-13T21:35:56.141Z,7.10
2018-12-13T21:38:23.619Z,6.70
2018-12-13T21:40:51.134Z,6.93
2018-12-13T21:43:18.565Z,6.50
2018-12-13T21:45:46.251Z,6.67
2018-12-13T21:48:13.703Z,5.80
2018-12-13T21:50:41.256Z,6.00
2018-12-13T21:53:08.825Z,6.00
2018-12-13T21:55:36.326Z,5.57
2018-12-13T21:58:03.781Z,5.63
2018-12-13T22:00:31.398Z,6.27
2018-12-13T22:02:58.857Z,5.90
2018-12-13T22:05:26.305Z,5.07
2018-12-13T22:07:53.873Z,6.30
2018-12-13T22:10:21.303Z,6.00
2018-12-13T22:12:48.758Z,5.70
2018-12-13T22:15:16.241Z,6.10
2018-12-13T22:17:43.693Z,6.17
2018-12-13T22:20:11.256Z,6.43
2018-12-13T22:22:38.837Z,6.57
2018-12-13T22:25:07.098Z,5.80
2018-12-13T22:27:34.856Z,5.83
2018-12-13T22:30:02.769Z,5.93
2018-12-13T22:32:30.390Z,6.00
2018-12-13T22:34:57.945Z,5.37
2018-12-13T22:37:25.416Z,6.40
2018-12-13T22:39:52.963Z,6.47
2018-12-13T22:42:20.461Z,5.87
2018-12-13T22:44:48.079Z,5.87
2018-12-13T22:47:15.549Z,6.27
2018-12-13T22:49:42.997Z,6.67
2018-12-13T22:52:10.530Z,6.37
2018-12-13T22:54:37.940Z,6.77
2018-12-13T22:57:05.574Z,6.83
2018-12-13T22:59:33.041Z,6.30
2018-12-13T23:02:00.498Z,7.10
2018-12-13T23:04:28.132Z,6.30
2018-12-13T23:06:55.704Z,6.63
2018-12-13T23:09:23.153Z,6.60
2018-12-13T23:11:50.622Z,7.00
2018-12-13T23:14:18.180Z,6.97
2018-12-13T23:16:45.630Z,6.80
2018-12-13T23:19:13.089Z,6.67
2018-12-13T23:21:40.594Z,6.67
2018-12-13T23:24:08.198Z,7.07
2018-12-13T23:26:35.620Z,6.83
2018-12-13T23:29:03.225Z,6.77
2018-12-13T23:31:30.778Z,6.50
2018-12-13T23:33:58.337Z,6.73
2018-12-13T23:36:25.854Z,7.00
2018-12-13T23:38:53.283Z,6.50
2018-12-13T23:41:20.781Z,7.00
2018-12-13T23:43:48.261Z,6.57
2018-12-13T23:46:15.688Z,6.60
2018-12-13T23:48:43.128Z,7.30
2018-12-13T23:51:10.851Z,6.57
2018-12-13T23:53:38.333Z,6.63
2018-12-13T23:56:05.857Z,6.70
2018-12-13T23:58:33.629Z,6.83
